Time;durP1;ratioP1;P1;durP2;ratioP2;P2;SDS_P1;SDS_P2;PMS_P1;PMS_P2;Temp;Humidity;BMP_temperature;BMP_pressure;BME280_temperature;BME280_humidity;BME280_pressure;Samples;Min_cycle;Max_cycle;Signal;HPM_P1;HPM_P2
2023/10/18 04:05:52;;;;;;;0.40;0.40;;;4.90;99.90;;;;;;5671597;22;20301;-67
2023/10/18 04:08:17;;;;;;;0.50;0.50;;;4.90;99.90;;;;;;5072511;28;20253;-64
2023/10/18 04:10:44;;;;;;;0.40;0.40;;;4.80;99.90;;;;;;5073117;28;20165;-67
2023/10/18 04:13:13;;;;;;;0.38;0.38;;;4.80;99.90;;;;;;5072990;28;20161;-67
2023/10/18 04:15:45;;;;;;;0.30;0.30;;;4.80;99.90;;;;;;5072634;28;20216;-68
2023/10/18 04:18:12;;;;;;;0.47;0.47;;;4.90;99.90;;;;;;5072977;28;20208;-66
2023/10/18 04:20:42;;;;;;;0.40;0.40;;;4.90;99.90;;;;;;5054659;28;20176;-66
2023/10/18 04:23:25;;;;;;;0.40;0.40;;;4.90;99.90;;;;;;5073071;28;20177;-67
2023/10/18 04:25:57;;;;;;;0.30;0.30;;;4.90;99.90;;;;;;5071998;28;20263;-67
2023/10/18 04:28:24;;;;;;;0.38;0.38;;;5.00;99.90;;;;;;5072948;28;20169;-68
2023/10/18 04:31:03;;;;;;;0.43;0.43;;;5.00;99.90;;;;;;5075551;28;20177;-67
2023/10/18 04:33:36;;;;;;;0.30;0.30;;;5.10;99.90;;;;;;5076669;28;20165;-67
2023/10/18 04:36:15;;;;;;;0.40;0.40;;;5.10;99.90;;;;;;5075042;28;20184;-68
2023/10/18 04:38:44;;;;;;;0.40;0.40;;;5.10;99.90;;;;;;5076351;28;20195;-68
2023/10/18 04:41:11;;;;;;;0.32;0.32;;;5.10;99.90;;;;;;5076316;28;20199;-67
2023/10/18 04:43:37;;;;;;;0.40;0.40;;;5.10;99.90;;;;;;5076496;28;20173;-67
2023/10/18 04:51:43;;;;;;;0.40;0.40;;;5.20;99.90;;;;;;5076343;28;20188;-67
2023/10/18 04:54:18;;;;;;;0.30;0.30;;;5.20;99.90;;;;;;5075393;28;20530;-67
2023/10/18 04:56:48;;;;;;;0.50;0.50;;;5.30;99.90;;;;;;5075482;28;20215;-66
2023/10/18 05:04:24;;;;;;;0.30;0.30;;;5.30;99.90;;;;;;5074773;28;20709;-67
2023/10/18 05:06:54;;;;;;;0.30;0.30;;;5.40;99.90;;;;;;5075676;28;20281;-66
2023/10/18 05:09:31;;;;;;;0.30;0.30;;;5.40;99.90;;;;;;5075118;28;20248;-67
2023/10/18 05:12:10;;;;;;;0.40;0.40;;;5.40;99.90;;;;;;5074927;28;20182;-66
2023/10/18 05:14:42;;;;;;;0.50;0.50;;;5.40;99.90;;;;;;5072416;28;20253;-66
2023/10/18 05:17:10;;;;;;;0.40;0.40;;;5.30;99.90;;;;;;5074571;28;20205;-69
2023/10/18 05:19:42;;;;;;;0.30;0.30;;;5.30;99.90;;;;;;5069194;28;20197;-67
2023/10/18 05:24:56;;;;;;;0.40;0.40;;;5.30;99.90;;;;;;5075244;28;20163;-66
2023/10/18 05:27:24;;;;;;;0.30;0.30;;;5.30;99.90;;;;;;5072884;28;20659;-64
2023/10/18 05:29:58;;;;;;;0.40;0.40;;;5.30;99.90;;;;;;5074743;28;20206;-68
2023/10/18 05:35:03;;;;;;;0.40;0.40;;;5.30;99.90;;;;;;5074378;28;20176;-66
2023/10/18 05:37:33;;;;;;;0.30;0.30;;;5.30;99.90;;;;;;5074156;28;20198;-67
2023/10/18 05:40:46;;;;;;;0.50;0.50;;;5.30;99.90;;;;;;5074871;28;20283;-65
2023/10/18 05:42:48;;;;;;;0.40;0.40;;;5.30;99.90;;;;;;5049033;28;20184;-68
2023/10/18 05:45:14;;;;;;;0.40;0.40;;;5.20;99.90;;;;;;5072331;28;20564;-69
2023/10/18 05:47:42;;;;;;;0.30;0.30;;;5.30;99.90;;;;;;5074182;28;20206;-64
2023/10/18 05:50:12;;;;;;;0.40;0.40;;;5.20;99.90;;;;;;5072845;28;20665;-65
2023/10/18 05:52:48;;;;;;;0.40;0.40;;;5.20;99.90;;;;;;5074778;28;20180;-67
2023/10/18 05:55:14;;;;;;;0.40;0.40;;;5.20;99.90;;;;;;5072426;28;20177;-64
2023/10/18 05:57:45;;;;;;;0.40;0.40;;;5.20;99.90;;;;;;5073625;28;20679;-64
2023/10/18 06:00:20;;;;;;;0.40;0.40;;;5.20;99.90;;;;;;5074931;28;20225;-63
2023/10/18 06:02:46;;;;;;;0.30;0.30;;;5.20;99.90;;;;;;5075177;28;20235;-66
2023/10/18 06:05:12;;;;;;;0.40;0.40;;;5.20;99.90;;;;;;5074115;28;20165;-65
2023/10/18 06:07:37;;;;;;;0.35;0.35;;;5.20;99.90;;;;;;5074035;28;20720;-64
2023/10/18 06:10:13;;;;;;;0.30;0.30;;;5.20;99.90;;;;;;5074163;28;20172;-63
2023/10/18 06:12:41;;;;;;;0.38;0.38;;;5.20;99.90;;;;;;5074715;28;20579;-65
2023/10/18 06:15:10;;;;;;;0.40;0.40;;;5.30;99.90;;;;;;5074027;28;20183;-65
2023/10/18 06:20:34;;;;;;;0.30;0.30;;;5.40;99.90;;;;;;5074682;28;20241;-64
2023/10/18 06:23:59;;;;;;;0.30;0.30;;;5.50;99.90;;;;;;5073788;28;20274;-65
2023/10/18 06:25:57;;;;;;;0.65;0.65;;;5.60;99.90;;;;;;5060233;28;20640;-65
2023/10/18 06:28:24;;;;;;;0.30;0.30;;;5.60;99.90;;;;;;5074119;28;20174;-65
2023/10/18 06:30:51;;;;;;;0.30;0.30;;;5.70;99.90;;;;;;5074067;28;20509;-64
2023/10/18 06:33:21;;;;;;;0.30;0.30;;;5.70;99.90;;;;;;5073964;28;20582;-62
2023/10/18 06:35:53;;;;;;;0.40;0.40;;;5.80;99.90;;;;;;5073637;28;20198;-62
2023/10/18 06:38:22;;;;;;;0.30;0.30;;;5.90;99.90;;;;;;5072794;28;20201;-63
2023/10/18 06:41:00;;;;;;;0.30;0.30;;;6.00;99.90;;;;;;5073847;28;20180;-65
2023/10/18 06:43:26;;;;;;;0.70;0.70;;;6.10;99.90;;;;;;5073928;28;20175;-63
2023/10/18 06:45:57;;;;;;;0.30;0.30;;;6.10;99.90;;;;;;5073420;28;20673;-65
2023/10/18 06:48:26;;;;;;;0.40;0.40;;;6.20;99.90;;;;;;5073626;28;20417;-65
2023/10/18 06:50:53;;;;;;;0.73;0.73;;;6.30;99.90;;;;;;5073681;28;20634;-65
2023/10/18 06:53:20;;;;;;;0.40;0.40;;;6.30;99.90;;;;;;5072332;28;20571;-61
2023/10/18 06:55:59;;;;;;;0.40;0.40;;;6.40;99.90;;;;;;5073139;28;20212;-63
2023/10/18 07:01:03;;;;;;;0.40;0.40;;;6.70;99.90;;;;;;5073662;28;20237;-63
2023/10/18 07:03:28;;;;;;;0.75;0.75;;;6.80;99.90;;;;;;5073840;28;20254;-65
2023/10/18 07:05:56;;;;;;;0.30;0.30;;;6.90;99.90;;;;;;5073007;28;20282;-64
2023/10/18 07:08:29;;;;;;;0.77;0.77;;;6.90;99.90;;;;;;5073313;28;20249;-66
2023/10/18 07:10:56;;;;;;;0.60;0.60;;;7.00;99.90;;;;;;5073649;28;20213;-63
2023/10/18 07:13:34;;;;;;;0.30;0.30;;;7.00;99.90;;;;;;5073726;28;20637;-65
2023/10/18 07:16:05;;;;;;;0.30;0.30;;;7.10;99.90;;;;;;5073233;28;20195;-63
2023/10/18 07:18:33;;;;;;;0.40;0.40;;;7.10;99.90;;;;;;5072126;28;20207;-64
2023/10/18 07:21:05;;;;;;;0.30;0.30;;;7.20;99.90;;;;;;5073369;28;20165;-64
2023/10/18 07:23:36;;;;;;;0.30;0.30;;;7.30;99.90;;;;;;5073384;28;20307;-66
2023/10/18 07:26:07;;;;;;;0.40;0.40;;;7.40;99.90;;;;;;5072993;28;20629;-63
2023/10/18 07:28:35;;;;;;;0.50;0.50;;;7.40;99.90;;;;;;5073376;28;20177;-65
2023/10/18 07:31:08;;;;;;;0.30;0.30;;;7.40;99.90;;;;;;5073424;28;20169;-67
2023/10/18 07:33:39;;;;;;;0.40;0.40;;;7.40;99.90;;;;;;5073317;28;20535;-66
2023/10/18 07:36:07;;;;;;;0.40;0.40;;;7.40;99.90;;;;;;5073055;28;20222;-63
2023/10/18 07:38:32;;;;;;;0.40;0.40;;;7.40;99.90;;;;;;5072050;28;20199;-66
2023/10/18 07:41:01;;;;;;;0.30;0.30;;;7.40;99.90;;;;;;5073381;28;20172;-63
2023/10/18 07:43:27;;;;;;;0.30;0.30;;;7.50;99.90;;;;;;5073236;28;20784;-63
2023/10/18 07:45:55;;;;;;;0.40;0.40;;;7.60;99.90;;;;;;5072663;28;20181;-64
2023/10/18 07:48:23;;;;;;;0.32;0.32;;;7.60;99.90;;;;;;5072662;28;20176;-64
2023/10/18 07:50:52;;;;;;;0.77;0.77;;;7.70;99.90;;;;;;5072701;28;20173;-65
2023/10/18 07:53:24;;;;;;;0.30;0.30;;;7.60;99.90;;;;;;5073113;28;20179;-66
2023/10/18 07:55:57;;;;;;;0.32;0.32;;;7.80;99.90;;;;;;5072595;28;20210;-66
2023/10/18 07:58:26;;;;;;;0.30;0.30;;;7.80;99.90;;;;;;5073159;28;20210;-65
2023/10/18 08:03:31;;;;;;;0.30;0.30;;;8.10;99.90;;;;;;5073184;28;20152;-65
2023/10/18 08:05:59;;;;;;;0.30;0.30;;;8.20;99.90;;;;;;5075858;28;20196;-66
2023/10/18 08:08:25;;;;;;;2.00;1.25;;;8.40;99.90;;;;;;5076903;28;20199;-65
2023/10/18 08:10:54;;;;;;;0.30;0.30;;;8.60;99.90;;;;;;5077017;28;20172;-67
2023/10/18 08:13:28;;;;;;;1.45;1.35;;;8.70;99.90;;;;;;5076774;28;20177;-66
2023/10/18 08:16:09;;;;;;;0.63;0.60;;;9.00;99.90;;;;;;5075942;28;20200;-66
2023/10/18 08:18:56;;;;;;;0.45;0.45;;;9.40;99.90;;;;;;5076683;28;20584;-66
2023/10/18 08:21:39;;;;;;;0.30;0.30;;;9.90;99.90;;;;;;5072018;28;20186;-65
2023/10/18 08:24:09;;;;;;;0.40;0.40;;;10.50;99.90;;;;;;5056069;28;20562;-67
2023/10/18 08:26:59;;;;;;;0.30;0.30;;;10.90;99.90;;;;;;5056283;28;20437;-66
2023/10/18 08:29:26;;;;;;;0.70;0.70;;;11.20;99.90;;;;;;5056524;28;20396;-66
2023/10/18 08:31:55;;;;;;;0.30;0.30;;;11.50;99.90;;;;;;5056281;28;20443;-65
2023/10/18 08:34:23;;;;;;;0.30;0.30;;;11.70;99.90;;;;;;5055834;28;20393;-67
2023/10/18 08:37:01;;;;;;;0.60;0.60;;;12.00;99.90;;;;;;5054879;28;20471;-66
2023/10/18 08:39:27;;;;;;;0.80;0.80;;;12.30;99.90;;;;;;5055011;28;20546;-65
2023/10/18 08:42:05;;;;;;;0.60;0.50;;;12.60;99.90;;;;;;5056358;28;20895;-66
2023/10/18 08:44:35;;;;;;;1.00;1.00;;;12.90;99.90;;;;;;5055756;28;20379;-65
2023/10/18 08:47:11;;;;;;;0.30;0.27;;;13.20;99.90;;;;;;5055934;28;20416;-65
2023/10/18 08:49:50;;;;;;;0.30;0.30;;;13.50;99.90;;;;;;5056087;28;20409;-69
2023/10/18 08:52:20;;;;;;;0.40;0.40;;;13.90;99.90;;;;;;5054804;28;20408;-66
2023/10/18 08:54:47;;;;;;;0.70;0.70;;;14.40;99.90;;;;;;5055638;28;20441;-65
2023/10/18 08:57:15;;;;;;;0.50;0.50;;;14.90;99.30;;;;;;5055476;28;20451;-66
2023/10/18 08:59:47;;;;;;;0.30;0.30;;;15.20;98.00;;;;;;5054164;28;20447;-65
2023/10/18 09:02:18;;;;;;;0.60;0.60;;;15.30;96.60;;;;;;5055809;28;20421;-65
2023/10/18 09:04:59;;;;;;;0.30;0.30;;;15.40;96.60;;;;;;5055450;28;20780;-69
2023/10/18 09:07:43;;;;;;;1.10;0.97;;;15.60;96.80;;;;;;5055751;28;20459;-64
2023/10/18 09:10:13;;;;;;;0.70;0.70;;;15.70;97.10;;;;;;5055823;28;20523;-66
2023/10/18 09:17:56;;;;;;;0.83;0.83;;;15.60;97.80;;;;;;5055808;28;20382;-68
2023/10/18 09:20:26;;;;;;;0.47;0.47;;;16.00;96.50;;;;;;5055627;28;20463;-65
2023/10/18 09:23:01;;;;;;;0.37;0.37;;;16.40;96.90;;;;;;5055827;28;20458;-65
2023/10/18 09:28:11;;;;;;;0.57;0.57;;;17.20;94.70;;;;;;5055880;28;20475;-68
2023/10/18 09:30:37;;;;;;;0.40;0.40;;;17.40;93.40;;;;;;5054944;28;20391;-64
2023/10/18 09:33:06;;;;;;;2.10;0.50;;;17.90;93.80;;;;;;5054905;28;20615;-68
2023/10/18 09:35:32;;;;;;;0.67;0.67;;;18.50;92.50;;;;;;5054780;28;20177;-68
2023/10/18 09:38:03;;;;;;;0.40;0.37;;;18.80;90.90;;;;;;5055386;28;20404;-64
2023/10/18 09:40:29;;;;;;;0.50;0.50;;;19.00;90.50;;;;;;5055365;28;20181;-64
2023/10/18 09:42:55;;;;;;;0.50;0.50;;;19.20;91.30;;;;;;5055377;28;20416;-67
2023/10/18 09:45:20;;;;;;;0.60;0.50;;;19.70;90.20;;;;;;5054364;28;20394;-67
2023/10/18 09:47:49;;;;;;;0.30;0.30;;;20.20;87.10;;;;;;5055109;28;20182;-69
2023/10/18 09:50:23;;;;;;;0.40;0.40;;;20.20;86.40;;;;;;5055078;28;20626;-65
2023/10/18 09:52:56;;;;;;;0.50;0.50;;;19.90;84.90;;;;;;5054859;28;20396;-67
2023/10/18 09:55:28;;;;;;;0.30;0.30;;;19.70;84.70;;;;;;5054282;28;20780;-65
2023/10/18 09:58:03;;;;;;;0.30;0.20;;;19.60;85.10;;;;;;5057915;28;20443;-68
2023/10/18 10:00:42;;;;;;;0.60;0.40;;;19.40;84.60;;;;;;5074484;28;20436;-67
2023/10/18 10:03:09;;;;;;;0.30;0.30;;;19.30;85.40;;;;;;5073538;28;20390;-66
2023/10/18 10:05:41;;;;;;;0.40;0.40;;;19.30;84.80;;;;;;5074102;28;20381;-65
2023/10/18 10:08:08;;;;;;;0.70;0.70;;;19.30;85.20;;;;;;5074154;28;20429;-67
2023/10/18 10:10:46;;;;;;;0.40;0.40;;;19.20;85.40;;;;;;5074595;28;20415;-66
2023/10/18 10:13:25;;;;;;;0.87;0.87;;;19.00;85.30;;;;;;5074633;28;20945;-67
2023/10/18 10:15:58;;;;;;;0.30;0.30;;;18.90;85.80;;;;;;5072985;28;20445;-66
2023/10/18 10:18:26;;;;;;;0.30;0.20;;;18.80;85.70;;;;;;5074614;28;20433;-67
2023/10/18 10:20:54;;;;;;;0.30;0.30;;;18.70;86.20;;;;;;5074398;28;20816;-64
2023/10/18 10:23:21;;;;;;;0.33;0.33;;;18.80;86.40;;;;;;5074478;28;20407;-65
2023/10/18 10:26:15;;;;;;;0.30;0.30;;;18.60;85.90;;;;;;5073958;28;20412;-64
2023/10/18 10:32:10;;;;;;;0.33;0.33;;;18.20;86.70;;;;;;5040249;28;20483;-63
2023/10/18 10:34:41;;;;;;;0.30;0.30;;;18.00;86.50;;;;;;5072601;28;20398;-65
2023/10/18 10:37:18;;;;;;;0.60;0.43;;;17.70;87.40;;;;;;5074140;28;20410;-65
2023/10/18 10:39:49;;;;;;;0.30;0.20;;;17.50;88.30;;;;;;5073159;28;20812;-65
2023/10/18 10:42:41;;;;;;;0.40;0.40;;;17.40;89.20;;;;;;5073567;28;20385;-67
2023/10/18 10:45:10;;;;;;;0.33;0.33;;;17.30;90.20;;;;;;5073581;28;21003;-67
2023/10/18 10:47:46;;;;;;;0.30;0.30;;;17.40;89.90;;;;;;5073841;28;20431;-67
2023/10/18 10:50:42;;;;;;;0.30;0.30;;;17.30;90.00;;;;;;5073620;28;20396;-67
2023/10/18 10:53:09;;;;;;;0.30;0.20;;;17.30;90.00;;;;;;5073815;28;20422;-66
2023/10/18 10:55:34;;;;;;;0.73;0.73;;;17.40;89.80;;;;;;5073328;28;20479;-64
2023/10/18 10:58:18;;;;;;;0.43;0.43;;;17.50;89.40;;;;;;5073828;28;20923;-67
2023/10/18 11:00:59;;;;;;;0.80;0.80;;;17.50;89.80;;;;;;5073388;28;20654;-67
2023/10/18 11:03:46;;;;;;;0.30;0.30;;;17.50;89.70;;;;;;5073497;28;20408;-65
2023/10/18 11:06:19;;;;;;;0.30;0.30;;;17.40;88.90;;;;;;5073442;28;20419;-66
2023/10/18 11:08:45;;;;;;;0.30;0.30;;;17.30;88.80;;;;;;5072140;28;20402;-66
2023/10/18 11:11:14;;;;;;;0.30;0.30;;;17.20;89.20;;;;;;5073236;28;20416;-65
2023/10/18 11:13:41;;;;;;;0.33;0.33;;;17.20;90.00;;;;;;5073505;28;20758;-65
2023/10/18 11:16:07;;;;;;;0.30;0.20;;;17.20;89.50;;;;;;5073318;28;20409;-67
2023/10/18 11:18:39;;;;;;;0.33;0.33;;;17.20;88.80;;;;;;5072778;28;20425;-64
2023/10/18 11:21:06;;;;;;;0.30;0.30;;;17.00;88.50;;;;;;5073376;28;20167;-64
2023/10/18 11:23:33;;;;;;;0.30;0.20;;;17.00;89.00;;;;;;5073471;28;20501;-65
2023/10/18 11:26:01;;;;;;;0.40;0.30;;;17.00;89.10;;;;;;5072914;28;20455;-62
2023/10/18 11:28:29;;;;;;;0.30;0.30;;;17.10;89.00;;;;;;5073133;28;20382;-63
2023/10/18 11:30:56;;;;;;;0.30;0.30;;;17.40;88.90;;;;;;5072852;28;20512;-63
2023/10/18 11:36:42;;;;;;;0.30;0.30;;;17.70;87.70;;;;;;5050979;28;20457;-64
2023/10/18 11:41:44;;;;;;;0.40;0.37;;;17.40;88.80;;;;;;5051063;28;20404;-61
2023/10/18 11:44:17;;;;;;;0.40;0.40;;;17.30;88.90;;;;;;5050302;28;20474;-65
2023/10/18 11:47:00;;;;;;;0.40;0.40;;;17.20;89.00;;;;;;5050785;28;20431;-64
2023/10/18 11:49:37;;;;;;;0.47;0.37;;;17.10;89.70;;;;;;5035968;28;20412;-65
2023/10/18 11:52:03;;;;;;;0.60;0.60;;;17.00;89.60;;;;;;5050978;28;20982;-63
2023/10/18 11:54:31;;;;;;;0.30;0.30;;;17.00;90.00;;;;;;5050371;28;20387;-63
2023/10/18 11:56:57;;;;;;;0.30;0.20;;;16.80;89.90;;;;;;5050787;28;20432;-63
2023/10/18 11:59:24;;;;;;;0.47;0.47;;;16.70;90.00;;;;;;5050730;28;20467;-63
2023/10/18 12:02:01;;;;;;;0.30;0.30;;;16.80;90.20;;;;;;5050704;28;20484;-63
2023/10/18 12:04:37;;;;;;;0.30;0.30;;;16.80;90.40;;;;;;5050566;28;20432;-64
2023/10/18 12:07:04;;;;;;;0.30;0.20;;;17.00;90.30;;;;;;5058465;28;20435;-63
2023/10/18 12:09:31;;;;;;;0.40;0.40;;;17.10;90.20;;;;;;5072671;28;20393;-63
2023/10/18 12:11:57;;;;;;;0.30;0.30;;;17.10;88.90;;;;;;5072985;28;20722;-64
2023/10/18 12:14:23;;;;;;;0.30;0.20;;;17.20;88.50;;;;;;5072042;28;20396;-64
2023/10/18 12:16:55;;;;;;;0.30;0.20;;;17.30;88.90;;;;;;5072668;28;20416;-64
2023/10/18 12:19:21;;;;;;;0.97;0.80;;;17.30;88.70;;;;;;5072680;28;20458;-65
2023/10/18 12:21:54;;;;;;;0.30;0.27;;;17.40;88.40;;;;;;5073379;28;20411;-64
2023/10/18 12:24:20;;;;;;;0.43;0.43;;;17.40;87.80;;;;;;5072556;28;20160;-63
2023/10/18 12:26:53;;;;;;;0.30;0.30;;;17.30;87.20;;;;;;5072808;28;20553;-65
2023/10/18 12:29:25;;;;;;;0.50;0.50;;;17.20;87.40;;;;;;5072891;28;20405;-65
2023/10/18 12:31:57;;;;;;;0.30;0.30;;;17.20;87.30;;;;;;5072718;28;20380;-65
2023/10/18 12:34:28;;;;;;;0.30;0.27;;;17.10;87.40;;;;;;5072442;28;20393;-64
2023/10/18 12:36:56;;;;;;;0.30;0.30;;;17.00;87.20;;;;;;5072680;28;20733;-65
2023/10/18 12:39:22;;;;;;;0.33;0.33;;;16.90;88.20;;;;;;5072612;28;20824;-66
2023/10/18 12:41:55;;;;;;;0.30;0.30;;;16.80;87.50;;;;;;5072689;28;20406;-67
2023/10/18 12:44:25;;;;;;;0.30;0.30;;;16.80;88.50;;;;;;5072206;28;20633;-65
2023/10/18 12:46:53;;;;;;;0.30;0.30;;;16.80;88.80;;;;;;5070995;28;20762;-67
2023/10/18 12:49:22;;;;;;;0.30;0.30;;;16.80;89.00;;;;;;5072669;28;20407;-65
2023/10/18 12:51:58;;;;;;;0.40;0.40;;;16.80;89.20;;;;;;5075165;28;20443;-65
2023/10/18 12:54:33;;;;;;;0.30;0.30;;;16.80;89.00;;;;;;5075942;28;20411;-65
2023/10/18 12:57:15;;;;;;;0.30;0.30;;;16.80;89.50;;;;;;5075932;28;20448;-65
2023/10/18 13:05:21;;;;;;;0.83;0.80;;;16.80;89.70;;;;;;5073388;28;20496;-65
2023/10/18 13:07:52;;;;;;;0.30;0.30;;;16.80;89.70;;;;;;5072314;28;20432;-66
2023/10/18 13:10:29;;;;;;;0.30;0.30;;;16.90;90.10;;;;;;5073706;28;20760;-65
2023/10/18 13:12:55;;;;;;;0.30;0.30;;;16.90;90.00;;;;;;5073677;28;20408;-65
2023/10/18 13:15:25;;;;;;;0.40;0.40;;;16.90;89.80;;;;;;5074306;28;20404;-65
2023/10/18 13:17:51;;;;;;;0.30;0.30;;;16.90;89.30;;;;;;5075850;28;20495;-65
2023/10/18 13:20:24;;;;;;;0.30;0.30;;;16.90;89.50;;;;;;5075471;28;20807;-65
2023/10/18 13:22:55;;;;;;;0.50;0.40;;;16.90;89.80;;;;;;5075834;28;20182;-65
2023/10/18 13:25:37;;;;;;;0.30;0.20;;;16.90;90.10;;;;;;5075426;28;20888;-65
2023/10/18 13:28:06;;;;;;;0.37;0.37;;;16.90;90.30;;;;;;5075707;28;20420;-65
2023/10/18 13:30:32;;;;;;;0.30;0.30;;;16.90;90.30;;;;;;5075500;28;20929;-64
2023/10/18 13:33:01;;;;;;;0.30;0.30;;;16.90;89.60;;;;;;5075326;28;20875;-66
2023/10/18 13:35:28;;;;;;;0.30;0.30;;;16.90;89.60;;;;;;5073602;28;20443;-64
2023/10/18 13:37:59;;;;;;;0.40;0.33;;;16.90;89.50;;;;;;5074042;28;20396;-66
2023/10/18 13:40:27;;;;;;;0.90;0.90;;;16.90;89.20;;;;;;5075399;28;20460;-66
2023/10/18 13:42:54;;;;;;;0.30;0.30;;;16.90;88.90;;;;;;5075393;28;20866;-66
2023/10/18 13:45:26;;;;;;;0.30;0.30;;;16.90;88.80;;;;;;5075065;28;20445;-65
2023/10/18 13:47:52;;;;;;;0.30;0.30;;;16.80;89.10;;;;;;5075409;28;20398;-65
2023/10/18 13:50:17;;;;;;;0.30;0.30;;;16.80;89.10;;;;;;5075093;28;20877;-65
2023/10/18 13:52:46;;;;;;;0.30;0.30;;;16.70;88.90;;;;;;5074787;28;20185;-65
2023/10/18 13:55:14;;;;;;;0.40;0.40;;;16.60;88.80;;;;;;5074324;28;20178;-65
2023/10/18 13:57:39;;;;;;;0.30;0.20;;;16.60;88.70;;;;;;5074713;28;20420;-64
2023/10/18 14:00:06;;;;;;;0.30;0.30;;;16.60;89.10;;;;;;5074988;28;20526;-65
2023/10/18 14:02:36;;;;;;;0.30;0.30;;;16.50;88.10;;;;;;5072774;28;20574;-64
2023/10/18 14:05:07;;;;;;;0.30;0.20;;;16.60;88.30;;;;;;5074541;28;20807;-65
2023/10/18 14:07:35;;;;;;;0.30;0.30;;;16.60;88.10;;;;;;5074692;28;20468;-66
2023/10/18 14:10:07;;;;;;;0.30;0.27;;;16.60;89.00;;;;;;5074783;28;20458;-64
2023/10/18 14:12:35;;;;;;;0.30;0.30;;;16.60;89.50;;;;;;5074816;28;20413;-64
2023/10/18 14:15:01;;;;;;;0.30;0.20;;;16.50;89.80;;;;;;5074217;28;20475;-65
2023/10/18 14:17:27;;;;;;;0.30;0.30;;;16.50;89.70;;;;;;5074566;28;20438;-65
2023/10/18 14:19:52;;;;;;;0.30;0.30;;;16.50;90.10;;;;;;5074503;28;20514;-66
2023/10/18 14:22:18;;;;;;;0.30;0.30;;;16.40;90.20;;;;;;5073417;28;20411;-65
2023/10/18 14:24:44;;;;;;;0.30;0.30;;;16.30;90.30;;;;;;5073345;28;20509;-63
2023/10/18 14:27:09;;;;;;;0.47;0.33;;;16.30;90.40;;;;;;5072999;28;20220;-59
2023/10/18 14:29:35;;;;;;;0.30;0.30;;;16.30;90.40;;;;;;5073255;28;20178;-60
2023/10/18 14:32:01;;;;;;;0.30;0.30;;;16.20;90.50;;;;;;5072346;28;20172;-59
2023/10/18 14:34:27;;;;;;;0.30;0.20;;;16.10;90.90;;;;;;5073061;28;20178;-59
2023/10/18 14:36:53;;;;;;;0.33;0.33;;;16.10;91.10;;;;;;5073284;28;20405;-59
2023/10/18 14:39:22;;;;;;;0.30;0.30;;;16.10;91.00;;;;;;5073686;28;20427;-60
2023/10/18 14:41:47;;;;;;;0.37;0.37;;;16.10;91.20;;;;;;5074266;28;20171;-60
2023/10/18 14:44:13;;;;;;;0.93;0.77;;;16.10;91.40;;;;;;5073697;28;20404;-60
2023/10/18 14:46:41;;;;;;;0.67;0.67;;;16.10;91.70;;;;;;5072643;28;20678;-59
2023/10/18 14:49:07;;;;;;;0.30;0.30;;;16.00;91.90;;;;;;5071648;28;20178;-59
2023/10/18 14:51:33;;;;;;;0.30;0.30;;;16.00;92.10;;;;;;5071635;28;20469;-59
2023/10/18 14:53:59;;;;;;;0.30;0.20;;;15.90;92.40;;;;;;5071618;28;20377;-59
2023/10/18 14:56:24;;;;;;;0.33;0.33;;;15.80;92.80;;;;;;5072025;28;20664;-60
2023/10/18 14:58:51;;;;;;;0.57;0.57;;;15.60;94.00;;;;;;5071752;28;20567;-59
2023/10/18 15:01:17;;;;;;;1.17;1.17;;;15.40;94.90;;;;;;5071948;28;20181;-59
2023/10/18 15:03:48;;;;;;;0.30;0.30;;;15.30;95.70;;;;;;5073470;28;20445;-60
2023/10/18 15:06:17;;;;;;;0.40;0.40;;;15.10;96.00;;;;;;5073488;28;20422;-59
2023/10/18 15:08:43;;;;;;;0.30;0.30;;;14.90;96.10;;;;;;5073612;28;20398;-59
2023/10/18 15:11:14;;;;;;;0.30;0.30;;;14.80;96.90;;;;;;5073485;28;20447;-60
2023/10/18 15:13:49;;;;;;;0.30;0.30;;;14.60;97.20;;;;;;5073328;28;20454;-59
2023/10/18 15:16:16;;;;;;;0.50;0.50;;;14.50;97.80;;;;;;5073171;28;20437;-59
2023/10/18 15:18:42;;;;;;;0.30;0.30;;;14.40;98.20;;;;;;5073304;28;20456;-60
2023/10/18 15:21:11;;;;;;;0.30;0.30;;;14.30;99.00;;;;;;5072808;28;20443;-59
2023/10/18 15:23:39;;;;;;;1.07;0.47;;;14.20;99.80;;;;;;5073182;28;20376;-60
2023/10/18 15:26:07;;;;;;;0.30;0.30;;;14.10;99.90;;;;;;5073206;28;20458;-60
2023/10/18 15:28:38;;;;;;;0.40;0.40;;;14.00;99.90;;;;;;5072625;28;20384;-60
2023/10/18 15:31:22;;;;;;;0.40;0.40;;;13.90;99.90;;;;;;5073590;28;20838;-59
2023/10/18 15:33:48;;;;;;;0.87;0.43;;;13.90;99.90;;;;;;5068723;28;20422;-59
2023/10/18 15:36:15;;;;;;;0.37;0.37;;;13.80;99.90;;;;;;5073300;28;20476;-59
2023/10/18 15:38:43;;;;;;;0.40;0.40;;;13.70;99.90;;;;;;5073153;28;20206;-60
2023/10/18 15:41:09;;;;;;;0.37;0.37;;;13.60;99.90;;;;;;5073313;28;20418;-59
2023/10/18 15:43:43;;;;;;;0.30;0.30;;;13.50;99.90;;;;;;5073338;28;20407;-65
2023/10/18 15:46:13;;;;;;;0.37;0.37;;;13.40;99.90;;;;;;5073318;28;20434;-59
2023/10/18 15:48:45;;;;;;;0.40;0.40;;;13.30;99.90;;;;;;5072982;28;20508;-59
2023/10/18 15:51:11;;;;;;;0.40;0.40;;;13.20;99.90;;;;;;5072935;28;20402;-59
2023/10/18 15:53:37;;;;;;;0.30;0.30;;;13.10;99.90;;;;;;5072929;28;20422;-60
2023/10/18 15:56:04;;;;;;;0.40;0.40;;;12.80;99.90;;;;;;5072641;28;20205;-60
2023/10/18 15:58:30;;;;;;;0.40;0.40;;;12.50;99.90;;;;;;5072866;28;20409;-60
2023/10/18 16:00:59;;;;;;;0.70;0.63;;;12.20;99.90;;;;;;5071552;28;20418;-60
2023/10/18 16:03:25;;;;;;;2.00;0.57;;;12.00;99.90;;;;;;5072985;28;20539;-59
2023/10/18 16:05:51;;;;;;;0.57;0.57;;;11.90;99.90;;;;;;5072293;28;20658;-59
2023/10/18 16:08:19;;;;;;;0.50;0.50;;;11.70;99.90;;;;;;5072739;28;20429;-59
2023/10/18 16:10:46;;;;;;;0.30;0.30;;;11.60;99.90;;;;;;5072848;28;20258;-62
2023/10/18 16:13:11;;;;;;;0.30;0.30;;;11.50;99.90;;;;;;5072522;28;20512;-64
2023/10/18 16:15:39;;;;;;;0.50;0.50;;;11.30;99.90;;;;;;5072247;28;20174;-66
2023/10/18 16:18:05;;;;;;;0.30;0.30;;;11.20;99.90;;;;;;5072425;28;20196;-65
2023/10/18 16:20:31;;;;;;;0.52;0.52;;;11.10;99.90;;;;;;5071193;28;20288;-65
2023/10/18 16:22:57;;;;;;;0.43;0.43;;;11.10;99.90;;;;;;5071598;28;20173;-66
2023/10/18 16:25:22;;;;;;;0.30;0.30;;;11.00;99.90;;;;;;5072626;28;20268;-65
2023/10/18 16:27:48;;;;;;;0.40;0.40;;;10.80;99.90;;;;;;5076221;28;20171;-65
2023/10/18 16:30:14;;;;;;;0.30;0.30;;;10.80;99.90;;;;;;5075170;28;20172;-64
2023/10/18 16:32:40;;;;;;;1.10;1.10;;;10.70;99.90;;;;;;5076241;28;20924;-67
2023/10/18 16:35:07;;;;;;;0.90;0.90;;;10.60;99.90;;;;;;5075778;28;20579;-68
2023/10/18 16:37:37;;;;;;;0.30;0.30;;;10.50;99.90;;;;;;5075319;28;20185;-68
2023/10/18 16:40:03;;;;;;;0.30;0.30;;;10.50;99.90;;;;;;5074897;28;20197;-66
2023/10/18 16:42:29;;;;;;;0.40;0.40;;;10.40;99.90;;;;;;5076423;28;20181;-67
2023/10/18 16:44:56;;;;;;;0.30;0.30;;;10.40;99.90;;;;;;5089850;28;20172;-68
2023/10/18 16:47:22;;;;;;;0.45;0.45;;;10.30;99.90;;;;;;5096535;28;20180;-66
2023/10/18 16:49:48;;;;;;;0.30;0.30;;;10.30;99.90;;;;;;5094771;28;20183;-66
2023/10/18 16:52:13;;;;;;;0.82;0.60;;;10.30;99.90;;;;;;5095657;28;20172;-68
2023/10/18 16:54:41;;;;;;;0.30;0.30;;;10.30;99.90;;;;;;5075460;28;20290;-68
2023/10/18 16:57:07;;;;;;;0.30;0.30;;;10.30;99.90;;;;;;5076046;28;20220;-67
2023/10/18 16:59:32;;;;;;;0.30;0.30;;;10.20;99.90;;;;;;5075585;28;20295;-66
2023/10/18 17:01:58;;;;;;;1.13;1.13;;;10.20;99.90;;;;;;5075848;28;20181;-64
2023/10/18 17:04:24;;;;;;;0.30;0.30;;;10.20;99.90;;;;;;5075044;28;20169;-64
2023/10/18 17:06:50;;;;;;;0.37;0.37;;;10.20;99.90;;;;;;5069673;28;20666;-63
2023/10/18 17:09:18;;;;;;;0.30;0.30;;;10.20;99.90;;;;;;5074525;28;20196;-64
2023/10/18 17:11:45;;;;;;;0.40;0.40;;;10.10;99.90;;;;;;5074740;28;20192;-61
2023/10/18 17:14:14;;;;;;;0.70;0.70;;;10.10;99.90;;;;;;5072090;28;20176;-60
2023/10/18 17:16:43;;;;;;;0.38;0.38;;;10.10;99.90;;;;;;5075010;28;20215;-59
2023/10/18 17:19:11;;;;;;;0.30;0.30;;;10.10;99.90;;;;;;5075460;28;20558;-62
2023/10/18 17:21:38;;;;;;;0.30;0.30;;;10.10;99.90;;;;;;5073121;28;20185;-61
2023/10/18 17:24:09;;;;;;;0.30;0.30;;;10.10;99.90;;;;;;5075212;28;20179;-65
2023/10/18 17:26:37;;;;;;;0.45;0.45;;;10.20;99.90;;;;;;5074726;28;20222;-62
2023/10/18 17:29:05;;;;;;;0.30;0.30;;;10.20;99.90;;;;;;5075411;28;20168;-64
2023/10/18 17:31:34;;;;;;;0.30;0.30;;;10.20;99.90;;;;;;5090798;28;20176;-65
2023/10/18 17:34:03;;;;;;;1.30;1.30;;;10.20;99.90;;;;;;5075091;28;20172;-64
2023/10/18 17:36:29;;;;;;;0.30;0.30;;;10.20;99.90;;;;;;5074174;28;20752;-69
2023/10/18 17:38:56;;;;;;;0.30;0.30;;;10.20;99.90;;;;;;5073759;28;20338;-65
2023/10/18 17:41:21;;;;;;;0.30;0.20;;;10.20;99.90;;;;;;5072632;28;20260;-67
2023/10/18 17:43:47;;;;;;;0.30;0.30;;;10.30;99.90;;;;;;5074430;28;20164;-68
2023/10/18 17:46:14;;;;;;;0.30;0.30;;;10.30;99.90;;;;;;5074539;28;20441;-63
2023/10/18 17:48:40;;;;;;;0.40;0.40;;;10.30;99.90;;;;;;5073791;28;20165;-65
2023/10/18 17:51:09;;;;;;;0.30;0.30;;;10.30;99.90;;;;;;5054761;28;20180;-65
2023/10/18 17:53:38;;;;;;;0.40;0.40;;;10.30;99.90;;;;;;5077896;28;20171;-64
2023/10/18 17:56:07;;;;;;;0.35;0.35;;;10.40;99.90;;;;;;5094518;28;20241;-65